Time;durP1;ratioP1;P1;durP2;ratioP2;P2;SDS_P1;SDS_P2;PMS_P1;PMS_P2;Temp;Humidity;BMP_temperature;BMP_pressure;BME280_temperature;BME280_humidity;BME280_pressure;Samples;Min_cycle;Max_cycle;Signal;HPM_P1;HPM_P2
2024/03/31 00:00:11;;;;;;;1.40;0.90;;;21.60;56.90;;;;;;4950817;28;94072;-65
2024/03/31 00:02:38;;;;;;;1.13;1.02;;;21.60;56.90;;;;;;4953780;28;92636;-65
2024/03/31 00:05:04;;;;;;;1.88;1.23;;;21.60;56.90;;;;;;4954550;28;91355;-64
2024/03/31 00:07:30;;;;;;;1.13;0.80;;;21.60;57.00;;;;;;4954571;28;92931;-64
2024/03/31 00:09:56;;;;;;;1.58;0.90;;;21.50;56.90;;;;;;4952161;28;93875;-66
2024/03/31 00:12:22;;;;;;;1.10;0.70;;;21.50;57.00;;;;;;4952267;28;93106;-67
2024/03/31 00:14:49;;;;;;;0.63;0.63;;;21.50;56.90;;;;;;4954484;28;92263;-64
2024/03/31 00:17:15;;;;;;;0.85;0.68;;;21.50;56.90;;;;;;4951907;28;94197;-65
2024/03/31 00:19:41;;;;;;;1.42;0.55;;;21.50;57.00;;;;;;4952803;28;93401;-66
2024/03/31 00:22:06;;;;;;;2.40;0.88;;;21.50;56.90;;;;;;4944563;28;92180;-65
2024/03/31 00:24:32;;;;;;;0.77;0.65;;;21.50;57.10;;;;;;4950709;28;92296;-65
2024/03/31 00:26:58;;;;;;;0.77;0.77;;;21.50;56.90;;;;;;4951171;28;93300;-65
2024/03/31 00:29:24;;;;;;;1.17;1.08;;;21.50;57.10;;;;;;4953034;28;93364;-66
2024/03/31 00:31:50;;;;;;;0.90;0.60;;;21.50;57.10;;;;;;4955397;28;92780;-64
2024/03/31 00:34:16;;;;;;;1.98;0.82;;;21.50;57.10;;;;;;4951650;28;92261;-66
2024/03/31 00:36:44;;;;;;;1.10;0.90;;;21.50;57.00;;;;;;4967473;28;94829;-66
2024/03/31 00:39:10;;;;;;;2.03;0.88;;;21.40;56.80;;;;;;4952513;28;93570;-63
2024/03/31 00:41:38;;;;;;;1.77;0.82;;;21.50;57.00;;;;;;4953107;28;92848;-66
2024/03/31 00:44:06;;;;;;;1.27;0.70;;;21.50;56.90;;;;;;4949766;28;92085;-64
2024/03/31 00:46:33;;;;;;;1.20;0.93;;;21.40;56.90;;;;;;4952900;28;94446;-64
2024/03/31 00:49:02;;;;;;;1.17;0.70;;;21.40;56.90;;;;;;4952904;28;92640;-65
2024/03/31 00:51:28;;;;;;;1.10;0.77;;;21.40;56.70;;;;;;4952957;28;92693;-64
2024/03/31 00:53:53;;;;;;;1.65;0.75;;;21.40;56.90;;;;;;4951421;28;91967;-65
2024/03/31 00:56:20;;;;;;;0.95;0.70;;;21.40;56.80;;;;;;4952728;28;92634;-64
2024/03/31 00:58:46;;;;;;;0.45;0.43;;;21.40;56.80;;;;;;4955037;28;93415;-65
2024/03/31 01:01:11;;;;;;;1.27;0.73;;;21.40;56.90;;;;;;4954190;28;95629;-65
2024/03/31 01:03:37;;;;;;;0.55;0.55;;;21.30;56.80;;;;;;4954204;28;92418;-64
2024/03/31 01:06:18;;;;;;;1.02;0.90;;;21.30;56.80;;;;;;4954280;28;93208;-63
2024/03/31 01:08:44;;;;;;;1.00;0.90;;;21.30;56.70;;;;;;4953129;28;92804;-65
2024/03/31 01:11:10;;;;;;;1.00;0.90;;;21.30;56.80;;;;;;4947036;28;92920;-65
2024/03/31 01:13:37;;;;;;;1.30;0.75;;;21.30;56.80;;;;;;4949687;28;92449;-65
2024/03/31 01:16:03;;;;;;;1.45;0.80;;;21.30;56.60;;;;;;4950210;28;93033;-64
2024/03/31 01:18:30;;;;;;;2.47;0.80;;;21.30;56.70;;;;;;4947494;28;93821;-64
2024/03/31 01:20:56;;;;;;;2.60;0.60;;;21.30;56.60;;;;;;4950868;28;95779;-63
2024/03/31 01:23:33;;;;;;;1.10;0.90;;;21.30;56.70;;;;;;4950424;28;92376;-66
2024/03/31 01:26:01;;;;;;;1.75;0.80;;;21.30;56.70;;;;;;4947981;28;97515;-64
2024/03/31 01:28:28;;;;;;;0.95;0.70;;;21.30;56.70;;;;;;4951362;28;94241;-66
2024/03/31 01:30:54;;;;;;;0.57;0.57;;;21.30;56.70;;;;;;4948747;28;92771;-64
2024/03/31 01:33:20;;;;;;;1.23;0.65;;;21.30;56.50;;;;;;4968346;28;92310;-64
2024/03/31 01:35:45;;;;;;;0.98;0.60;;;21.30;56.60;;;;;;4968511;28;93560;-65
2024/03/31 01:38:13;;;;;;;0.75;0.60;;;21.30;56.60;;;;;;4966257;28;93555;-65
2024/03/31 01:40:39;;;;;;;0.70;0.70;;;21.30;56.70;;;;;;4968446;28;92641;-64
2024/03/31 01:43:06;;;;;;;0.75;0.70;;;21.20;56.70;;;;;;4968300;28;91745;-64
2024/03/31 01:45:32;;;;;;;0.88;0.73;;;21.20;56.60;;;;;;4968208;28;94625;-64
2024/03/31 01:47:58;;;;;;;0.70;0.70;;;21.20;56.60;;;;;;4967057;28;92904;-64
2024/03/31 01:50:24;;;;;;;1.17;0.80;;;21.20;56.50;;;;;;4968188;28;93475;-63
2024/03/31 01:52:50;;;;;;;0.93;0.80;;;21.20;56.40;;;;;;4969288;28;92256;-65
2024/03/31 01:55:16;;;;;;;1.40;1.00;;;21.20;56.50;;;;;;4966817;28;94298;-65
2024/03/31 01:57:42;;;;;;;1.20;0.73;;;21.20;56.50;;;;;;4966823;28;93184;-66
2024/03/31 02:00:09;;;;;;;1.38;0.80;;;21.20;56.70;;;;;;4968512;28;92529;-65
2024/03/31 02:02:35;;;;;;;0.90;0.70;;;21.20;56.50;;;;;;4967131;28;92694;-64
2024/03/31 02:05:01;;;;;;;0.85;0.77;;;21.20;56.80;;;;;;4966532;28;94485;-64
2024/03/31 02:07:27;;;;;;;2.53;1.25;;;21.20;56.60;;;;;;4968151;28;93353;-65
2024/03/31 02:09:53;;;;;;;0.80;0.70;;;21.20;56.70;;;;;;4968474;28;92712;-64
2024/03/31 02:12:19;;;;;;;1.25;0.80;;;21.20;56.70;;;;;;4966343;28;92531;-64
2024/03/31 02:14:45;;;;;;;0.70;0.70;;;21.20;56.80;;;;;;4968040;28;93611;-64
2024/03/31 02:17:11;;;;;;;1.00;0.70;;;21.10;56.70;;;;;;4946023;28;94476;-66
2024/03/31 02:19:37;;;;;;;1.13;1.02;;;21.20;56.60;;;;;;4949766;28;93113;-64
2024/03/31 02:22:02;;;;;;;1.10;0.80;;;21.20;56.70;;;;;;4947255;28;92691;-65
2024/03/31 02:24:29;;;;;;;0.80;0.80;;;21.10;56.50;;;;;;4949408;28;93797;-64
2024/03/31 02:26:55;;;;;;;0.75;0.68;;;21.10;56.30;;;;;;4943288;28;94072;-65
2024/03/31 02:29:23;;;;;;;0.63;0.63;;;21.10;56.40;;;;;;4948843;28;92327;-65
2024/03/31 02:31:49;;;;;;;1.33;0.60;;;21.10;56.40;;;;;;4950852;28;91503;-64
2024/03/31 02:34:15;;;;;;;1.67;0.77;;;21.10;56.40;;;;;;4946916;28;93461;-65
2024/03/31 02:36:41;;;;;;;0.98;0.80;;;21.10;56.40;;;;;;4945560;28;93535;-64
2024/03/31 02:39:07;;;;;;;0.70;0.70;;;21.10;56.40;;;;;;4945814;28;94307;-63
2024/03/31 02:41:32;;;;;;;0.80;0.80;;;21.10;56.50;;;;;;4947753;28;92664;-65
2024/03/31 02:43:58;;;;;;;0.80;0.77;;;21.10;56.40;;;;;;4946718;28;92955;-65
2024/03/31 02:46:24;;;;;;;1.13;0.77;;;21.10;56.50;;;;;;4947943;28;92812;-65
2024/03/31 02:48:49;;;;;;;0.90;0.70;;;21.10;56.70;;;;;;4947152;28;92483;-63
2024/03/31 02:51:15;;;;;;;2.25;0.70;;;21.10;56.60;;;;;;4948271;28;92577;-65
2024/03/31 02:53:41;;;;;;;1.20;0.90;;;21.00;56.70;;;;;;4945559;28;93932;-64
2024/03/31 02:56:07;;;;;;;2.33;0.95;;;21.00;56.60;;;;;;4945831;28;95862;-67
2024/03/31 02:58:34;;;;;;;0.68;0.68;;;21.00;56.50;;;;;;4948576;28;92881;-64
2024/03/31 03:01:05;;;;;;;1.25;0.88;;;21.00;56.70;;;;;;4943241;28;92839;-67
2024/03/31 03:03:31;;;;;;;1.00;0.90;;;21.00;56.60;;;;;;4946066;28;94656;-64
2024/03/31 03:05:57;;;;;;;1.05;0.93;;;21.00;56.60;;;;;;4947998;28;93076;-67
2024/03/31 03:08:23;;;;;;;0.85;0.77;;;21.00;56.60;;;;;;4945380;28;92810;-66
2024/03/31 03:10:56;;;;;;;1.02;0.80;;;21.00;56.40;;;;;;4947319;28;92198;-66
2024/03/31 03:13:22;;;;;;;1.25;1.15;;;21.00;56.50;;;;;;4941371;28;92718;-64
2024/03/31 03:15:48;;;;;;;1.52;1.00;;;21.00;56.50;;;;;;4962018;28;93751;-65
2024/03/31 03:18:16;;;;;;;1.42;0.85;;;21.00;56.50;;;;;;4949289;28;92230;-64
2024/03/31 03:20:42;;;;;;;0.77;0.77;;;21.00;56.40;;;;;;4964249;28;91644;-63
2024/03/31 03:23:08;;;;;;;1.42;0.80;;;21.00;56.40;;;;;;4947228;28;95324;-64
2024/03/31 03:25:34;;;;;;;0.70;0.70;;;21.00;56.90;;;;;;4947604;28;93521;-64
2024/03/31 03:28:00;;;;;;;1.35;0.95;;;21.00;56.40;;;;;;4947952;28;94338;-67
2024/03/31 03:30:26;;;;;;;1.00;0.90;;;20.90;56.30;;;;;;4941193;28;92426;-64
2024/03/31 03:32:52;;;;;;;1.00;0.90;;;20.90;56.40;;;;;;4945083;28;93108;-66
2024/03/31 03:35:18;;;;;;;0.95;0.82;;;20.90;56.40;;;;;;4946189;28;93628;-64
2024/03/31 03:37:47;;;;;;;1.48;0.90;;;20.90;56.50;;;;;;4948142;28;92721;-65
2024/03/31 03:40:13;;;;;;;1.17;0.80;;;20.90;56.30;;;;;;4945561;28;92585;-64
2024/03/31 03:42:39;;;;;;;0.68;0.63;;;20.90;56.30;;;;;;4945427;28;93174;-65
2024/03/31 03:45:05;;;;;;;0.95;0.85;;;21.00;56.40;;;;;;4947375;28;92841;-65
2024/03/31 03:47:31;;;;;;;0.98;0.80;;;20.90;56.40;;;;;;4943242;28;92543;-63
2024/03/31 03:49:57;;;;;;;1.85;0.88;;;20.90;56.30;;;;;;4947254;28;92345;-64
2024/03/31 03:52:23;;;;;;;1.02;0.80;;;20.90;56.30;;;;;;4947785;28;94029;-68
2024/03/31 03:54:49;;;;;;;0.93;0.63;;;20.90;56.30;;;;;;4947290;28;93819;-65
2024/03/31 03:57:15;;;;;;;1.00;0.70;;;20.90;56.30;;;;;;4946786;28;92971;-65
2024/03/31 03:59:40;;;;;;;0.75;0.70;;;20.90;56.30;;;;;;4945404;28;92194;-65
2024/03/31 04:02:07;;;;;;;0.85;0.70;;;20.90;56.30;;;;;;4944980;28;94509;-66
2024/03/31 04:04:33;;;;;;;0.98;0.70;;;20.90;56.20;;;;;;4962566;28;95333;-65
2024/03/31 04:07:00;;;;;;;0.80;0.70;;;20.90;56.20;;;;;;4944373;28;92527;-66
2024/03/31 04:09:27;;;;;;;0.85;0.77;;;20.90;56.10;;;;;;4948184;28;91854;-63
2024/03/31 04:11:53;;;;;;;0.82;0.77;;;20.80;56.10;;;;;;4946174;28;92606;-63
2024/03/31 04:14:19;;;;;;;1.50;1.02;;;20.80;56.30;;;;;;4945752;28;93992;-65
2024/03/31 04:16:46;;;;;;;1.13;1.02;;;20.80;56.20;;;;;;4947695;28;93338;-65
2024/03/31 04:19:12;;;;;;;1.27;0.70;;;20.80;56.10;;;;;;4947297;28;97567;-64
2024/03/31 04:21:39;;;;;;;1.17;0.70;;;20.80;56.20;;;;;;4945208;28;94206;-65
2024/03/31 04:24:06;;;;;;;1.05;0.90;;;20.80;56.30;;;;;;4941855;28;93924;-66
2024/03/31 04:26:32;;;;;;;0.70;0.70;;;20.80;56.30;;;;;;4947066;28;93042;-65
2024/03/31 04:28:59;;;;;;;1.08;0.98;;;20.80;56.30;;;;;;4947758;28;92575;-64
2024/03/31 04:31:24;;;;;;;1.90;1.02;;;20.80;56.30;;;;;;4946463;28;95922;-65
2024/03/31 04:33:50;;;;;;;1.35;0.80;;;20.80;56.40;;;;;;4947944;28;92908;-66
2024/03/31 04:36:15;;;;;;;1.10;0.70;;;20.80;56.20;;;;;;4945643;28;92105;-64
2024/03/31 04:38:42;;;;;;;0.80;0.50;;;20.80;56.20;;;;;;4943370;28;92571;-63
2024/03/31 04:41:08;;;;;;;1.92;1.08;;;20.80;56.30;;;;;;4942499;28;93256;-65
2024/03/31 04:43:34;;;;;;;1.52;0.85;;;20.80;56.30;;;;;;4947780;28;93716;-64
2024/03/31 04:46:03;;;;;;;1.10;0.90;;;20.80;56.30;;;;;;4947431;28;92373;-65
2024/03/31 04:48:38;;;;;;;1.17;0.80;;;20.80;56.40;;;;;;4948756;28;91969;-63
2024/03/31 04:51:08;;;;;;;1.10;1.00;;;20.80;56.40;;;;;;4949070;28;94144;-66
2024/03/31 04:53:37;;;;;;;0.70;0.70;;;20.80;56.40;;;;;;4948928;28;92783;-65
2024/03/31 04:56:04;;;;;;;1.85;1.13;;;20.80;56.20;;;;;;4947075;28;92530;-64
2024/03/31 04:58:31;;;;;;;0.68;0.60;;;20.80;56.10;;;;;;4949374;28;91378;-68
2024/03/31 05:00:57;;;;;;;0.93;0.80;;;20.80;56.10;;;;;;4949906;28;92661;-65
2024/03/31 05:03:24;;;;;;;0.70;0.70;;;20.80;56.10;;;;;;4948511;28;93291;-65
2024/03/31 05:05:51;;;;;;;1.67;0.75;;;20.80;56.20;;;;;;4949145;28;93575;-64
2024/03/31 05:08:16;;;;;;;0.75;0.70;;;20.70;56.20;;;;;;4947863;28;92612;-66
2024/03/31 05:11:01;;;;;;;1.58;0.80;;;20.80;56.10;;;;;;4951600;28;93146;-65
2024/03/31 05:13:27;;;;;;;0.80;0.80;;;20.70;56.10;;;;;;4950641;28;97258;-63
2024/03/31 05:16:02;;;;;;;0.88;0.82;;;20.70;56.10;;;;;;4948803;28;92422;-64
2024/03/31 05:18:28;;;;;;;0.77;0.70;;;20.70;56.00;;;;;;4950315;28;92349;-64
2024/03/31 05:21:02;;;;;;;1.27;0.75;;;20.70;56.10;;;;;;4948695;28;93889;-64
2024/03/31 05:23:28;;;;;;;2.15;0.95;;;20.70;56.20;;;;;;4948438;28;92705;-64
2024/03/31 05:25:57;;;;;;;0.77;0.63;;;20.70;56.20;;;;;;4950034;28;91957;-63
2024/03/31 05:28:24;;;;;;;0.93;0.73;;;20.70;56.20;;;;;;4955171;28;92313;-65
2024/03/31 05:30:50;;;;;;;1.15;0.90;;;20.70;56.20;;;;;;4967011;28;93498;-66
2024/03/31 05:33:16;;;;;;;0.82;0.75;;;20.70;56.20;;;;;;4949093;28;93197;-65
2024/03/31 05:35:43;;;;;;;0.70;0.70;;;20.70;56.00;;;;;;4968638;28;92534;-64
2024/03/31 05:38:10;;;;;;;0.82;0.57;;;20.70;56.00;;;;;;4968758;28;92874;-64
2024/03/31 05:40:41;;;;;;;0.70;0.60;;;20.70;56.10;;;;;;4967023;28;94376;-66
2024/03/31 05:43:07;;;;;;;0.57;0.57;;;20.70;56.00;;;;;;4968028;28;92819;-65
2024/03/31 05:45:34;;;;;;;1.10;0.95;;;20.70;56.20;;;;;;4943272;28;92447;-64
2024/03/31 05:48:19;;;;;;;0.80;0.80;;;20.70;56.20;;;;;;4944046;28;91645;-65
2024/03/31 05:50:45;;;;;;;1.08;0.93;;;20.70;56.20;;;;;;4948085;28;94282;-66
2024/03/31 05:53:12;;;;;;;0.70;0.60;;;20.70;56.20;;;;;;4950213;28;92808;-64
2024/03/31 05:55:37;;;;;;;1.17;0.90;;;20.70;56.10;;;;;;4950218;28;93671;-64
2024/03/31 05:58:04;;;;;;;1.15;1.05;;;20.70;56.20;;;;;;4948574;28;92669;-65
2024/03/31 06:00:30;;;;;;;1.23;0.80;;;20.70;56.10;;;;;;4948072;28;94070;-64
2024/03/31 06:02:55;;;;;;;1.23;0.70;;;20.70;55.90;;;;;;4948699;28;92851;-65
2024/03/31 06:05:21;;;;;;;0.80;0.75;;;20.70;55.60;;;;;;4947413;28;92313;-65
2024/03/31 06:07:51;;;;;;;1.25;0.73;;;20.70;55.70;;;;;;4950533;28;92397;-64
2024/03/31 06:10:16;;;;;;;1.63;1.10;;;20.70;55.70;;;;;;4946496;28;93097;-66
2024/03/31 06:12:42;;;;;;;3.47;0.88;;;20.70;56.00;;;;;;4949977;28;92608;-67
2024/03/31 06:15:09;;;;;;;1.00;0.90;;;20.70;56.70;;;;;;4948062;28;92490;-66
2024/03/31 06:17:36;;;;;;;0.95;0.70;;;20.70;57.00;;;;;;4948671;28;92674;-65
2024/03/31 06:20:03;;;;;;;1.48;0.90;;;20.80;57.00;;;;;;4947179;28;94999;-67
2024/03/31 06:22:29;;;;;;;1.13;0.90;;;20.80;56.60;;;;;;4950499;28;94134;-63
2024/03/31 06:24:55;;;;;;;1.05;0.68;;;21.00;56.30;;;;;;4948949;28;92130;-65
2024/03/31 06:27:20;;;;;;;1.27;1.00;;;21.20;55.90;;;;;;4949561;28;92803;-65
2024/03/31 06:29:50;;;;;;;1.35;0.90;;;21.40;55.70;;;;;;4940212;28;94779;-64
2024/03/31 06:32:17;;;;;;;0.80;0.80;;;21.60;55.20;;;;;;4947603;28;92872;-65
2024/03/31 06:34:45;;;;;;;7.72;1.45;;;21.80;55.00;;;;;;4947743;28;92372;-68
2024/03/31 06:37:10;;;;;;;2.00;1.10;;;21.90;54.60;;;;;;4942001;28;91361;-66
2024/03/31 06:39:36;;;;;;;1.23;0.90;;;21.90;54.50;;;;;;4936840;28;93821;-65
2024/03/31 06:42:03;;;;;;;1.35;0.73;;;22.00;54.40;;;;;;4942891;28;93010;-65
2024/03/31 06:44:30;;;;;;;2.97;0.68;;;22.00;54.40;;;;;;4947065;28;92947;-66
2024/03/31 06:46:56;;;;;;;1.38;0.95;;;22.00;54.50;;;;;;4948602;28;92561;-65
2024/03/31 06:49:22;;;;;;;1.05;0.70;;;22.10;54.50;;;;;;4947538;28;97885;-66
2024/03/31 06:51:48;;;;;;;2.05;0.80;;;22.10;54.40;;;;;;4948683;28;92912;-65
2024/03/31 06:54:14;;;;;;;1.48;1.00;;;22.10;54.70;;;;;;4944866;28;92973;-65
2024/03/31 06:56:39;;;;;;;1.10;0.80;;;22.10;54.50;;;;;;4946318;28;92991;-65
2024/03/31 06:59:05;;;;;;;2.58;1.30;;;22.20;54.50;;;;;;4947125;28;93200;-65
2024/03/31 07:01:31;;;;;;;1.10;0.93;;;22.20;54.50;;;;;;4948739;28;92847;-67
2024/03/31 07:03:57;;;;;;;1.95;1.15;;;22.20;54.50;;;;;;4945381;28;92270;-69
2024/03/31 07:06:23;;;;;;;7.35;1.92;;;22.20;54.60;;;;;;4946668;28;92481;-65
2024/03/31 07:08:49;;;;;;;13.18;1.98;;;22.20;54.40;;;;;;4943033;28;94469;-66
2024/03/31 07:11:15;;;;;;;8.88;2.38;;;22.30;54.40;;;;;;4945943;28;93978;-64
2024/03/31 07:13:41;;;;;;;6.80;1.92;;;22.30;54.40;;;;;;4949120;28;93090;-66
2024/03/31 07:16:07;;;;;;;11.63;2.97;;;22.30;54.40;;;;;;4946611;28;92612;-65
2024/03/31 07:18:33;;;;;;;6.20;1.67;;;22.30;53.90;;;;;;4945499;28;94177;-67
2024/03/31 07:20:59;;;;;;;7.97;2.28;;;22.30;54.30;;;;;;4944928;28;94199;-64
2024/03/31 07:23:25;;;;;;;8.70;2.72;;;22.40;54.60;;;;;;4945465;28;93127;-66
2024/03/31 07:25:51;;;;;;;7.78;2.40;;;22.30;55.00;;;;;;4948067;28;92332;-65
2024/03/31 07:28:17;;;;;;;5.28;1.83;;;22.40;54.30;;;;;;4942564;28;93506;-66
2024/03/31 07:30:45;;;;;;;11.13;3.15;;;22.40;54.30;;;;;;4947006;28;93376;-64
2024/03/31 07:33:11;;;;;;;18.80;4.97;;;22.40;53.90;;;;;;4944162;28;93345;-65
2024/03/31 07:35:36;;;;;;;23.17;5.82;;;22.40;53.60;;;;;;4946180;28;94341;-68
2024/03/31 07:38:02;;;;;;;20.58;4.68;;;22.40;53.00;;;;;;4947349;28;93170;-64
2024/03/31 07:40:28;;;;;;;22.02;5.03;;;22.50;52.90;;;;;;4947244;28;92424;-65
2024/03/31 07:42:55;;;;;;;19.65;4.90;;;22.50;52.60;;;;;;4947478;28;92267;-65
2024/03/31 07:45:20;;;;;;;21.40;5.35;;;22.50;52.50;;;;;;4946226;28;92049;-65
2024/03/31 07:47:46;;;;;;;27.55;6.03;;;22.50;52.50;;;;;;4947306;28;93666;-68
2024/03/31 07:50:12;;;;;;;18.13;6.07;;;22.40;52.50;;;;;;4945039;28;92337;-67
2024/03/31 07:52:38;;;;;;;15.55;4.25;;;22.30;52.60;;;;;;4948904;28;92555;-66
2024/03/31 07:55:05;;;;;;;18.27;4.80;;;22.30;53.10;;;;;;4945618;28;92584;-65
2024/03/31 07:57:30;;;;;;;11.05;3.38;;;22.30;53.00;;;;;;4944990;28;94984;-65
2024/03/31 07:59:56;;;;;;;17.83;3.95;;;22.30;52.50;;;;;;4947582;28;94249;-65
2024/03/31 08:02:22;;;;;;;10.45;3.95;;;22.40;52.20;;;;;;4947148;28;92477;-66
2024/03/31 08:04:48;;;;;;;12.93;3.10;;;22.40;52.00;;;;;;4944852;28;93341;-67
2024/03/31 08:07:14;;;;;;;12.85;3.50;;;22.30;51.90;;;;;;4939917;28;92558;-65
2024/03/31 08:09:41;;;;;;;13.85;3.15;;;22.30;52.00;;;;;;4963481;28;93919;-65
2024/03/31 08:12:07;;;;;;;11.02;3.30;;;22.30;51.90;;;;;;4962269;28;92624;-66
2024/03/31 08:14:32;;;;;;;10.40;2.90;;;22.30;52.00;;;;;;4963716;28;91614;-66
2024/03/31 08:16:59;;;;;;;8.27;2.67;;;22.30;51.50;;;;;;4964873;28;93944;-65
2024/03/31 08:19:26;;;;;;;12.30;3.35;;;22.40;51.80;;;;;;4965641;28;93498;-68
2024/03/31 08:21:53;;;;;;;20.48;3.65;;;22.30;51.80;;;;;;4967114;28;93914;-67
2024/03/31 08:24:20;;;;;;;14.68;4.55;;;22.40;51.80;;;;;;4969724;28;92809;-65
2024/03/31 08:26:46;;;;;;;24.92;6.35;;;22.40;52.20;;;;;;4969812;28;93158;-66
2024/03/31 08:29:11;;;;;;;28.75;7.95;;;22.40;52.10;;;;;;4968259;28;92811;-65
2024/03/31 08:31:37;;;;;;;34.95;10.10;;;22.40;52.00;;;;;;4968229;28;92695;-65
2024/03/31 08:34:04;;;;;;;35.90;10.10;;;22.40;52.30;;;;;;4966210;28;92538;-65
2024/03/31 08:36:30;;;;;;;38.13;8.73;;;22.40;52.00;;;;;;4966084;28;94119;-67
2024/03/31 08:38:56;;;;;;;34.92;8.75;;;22.50;51.80;;;;;;4967718;28;92964;-67
2024/03/31 08:41:38;;;;;;;24.50;7.20;;;22.40;51.80;;;;;;4964901;28;92408;-66
2024/03/31 08:44:06;;;;;;;25.90;7.22;;;22.40;51.10;;;;;;4968684;28;92667;-66
2024/03/31 08:46:32;;;;;;;45.13;7.88;;;22.40;51.20;;;;;;4940959;28;95320;-66
2024/03/31 08:48:58;;;;;;;26.73;6.32;;;22.50;50.80;;;;;;4953083;28;94076;-64
2024/03/31 08:51:24;;;;;;;31.27;7.35;;;22.60;50.60;;;;;;4949735;28;92419;-65
2024/03/31 08:53:51;;;;;;;22.60;6.70;;;22.60;50.60;;;;;;4950860;28;92311;-65
2024/03/31 08:56:17;;;;;;;27.42;6.60;;;22.60;50.70;;;;;;4950258;28;93108;-66
2024/03/31 08:58:43;;;;;;;31.98;7.70;;;22.70;51.00;;;;;;4950567;28;92951;-65
2024/03/31 09:01:13;;;;;;;19.35;4.75;;;22.70;51.20;;;;;;4950079;28;92758;-66
2024/03/31 09:03:40;;;;;;;15.18;4.72;;;22.80;51.20;;;;;;4950722;28;91885;-64
2024/03/31 09:06:06;;;;;;;14.55;4.53;;;22.70;51.20;;;;;;4961150;28;93724;-67
2024/03/31 09:08:34;;;;;;;16.92;3.92;;;22.70;51.20;;;;;;4947498;28;93343;-67
2024/03/31 09:11:03;;;;;;;21.58;4.45;;;22.70;51.60;;;;;;4944558;28;93900;-68
2024/03/31 09:13:29;;;;;;;13.70;4.40;;;22.70;51.80;;;;;;4950754;28;91999;-64
2024/03/31 09:15:56;;;;;;;11.40;3.70;;;22.60;51.90;;;;;;4945947;28;93356;-66
2024/03/31 09:18:22;;;;;;;12.35;4.70;;;22.70;52.20;;;;;;4945293;28;93986;-66
2024/03/31 09:20:48;;;;;;;10.68;2.35;;;22.70;52.10;;;;;;4946807;28;92130;-66
2024/03/31 09:23:15;;;;;;;11.30;3.78;;;22.60;52.00;;;;;;4948267;28;92444;-67
2024/03/31 09:25:40;;;;;;;13.23;3.42;;;22.60;52.20;;;;;;4951236;28;93075;-65
2024/03/31 09:28:07;;;;;;;12.60;3.60;;;22.60;52.20;;;;;;4948034;28;92826;-64
2024/03/31 09:30:32;;;;;;;10.13;3.50;;;22.60;52.20;;;;;;4948651;28;92764;-66
2024/03/31 09:32:59;;;;;;;12.15;4.45;;;22.60;52.10;;;;;;4948176;28;92551;-67
2024/03/31 09:35:25;;;;;;;12.20;4.30;;;22.60;52.10;;;;;;4946587;28;94189;-64
2024/03/31 09:37:51;;;;;;;10.80;3.03;;;22.60;52.80;;;;;;4949569;28;93843;-67
2024/03/31 09:40:17;;;;;;;9.57;3.05;;;22.70;52.70;;;;;;4949326;28;92117;-67
2024/03/31 09:42:44;;;;;;;11.25;2.60;;;22.60;52.20;;;;;;4949331;28;92549;-64
2024/03/31 09:45:11;;;;;;;11.88;4.40;;;22.60;52.20;;;;;;4947539;28;93038;-65
2024/03/31 09:47:49;;;;;;;5.65;1.95;;;22.60;51.90;;;;;;4948049;28;92798;-64
2024/03/31 09:50:35;;;;;;;11.48;2.45;;;22.60;51.50;;;;;;4961316;28;92300;-66
2024/03/31 09:53:06;;;;;;;9.20;2.35;;;22.60;52.00;;;;;;4948646;28;91569;-65
2024/03/31 09:55:44;;;;;;;6.72;2.17;;;22.60;51.60;;;;;;4949431;28;93220;-64
2024/03/31 09:58:12;;;;;;;6.82;2.22;;;22.60;51.80;;;;;;4946720;28;92468;-64
2024/03/31 10:00:41;;;;;;;11.02;2.30;;;22.60;51.50;;;;;;4946324;28;92991;-65
2024/03/31 10:03:27;;;;;;;13.30;4.40;;;22.60;51.00;;;;;;4947799;28;92748;-65
2024/03/31 10:05:54;;;;;;;20.13;5.30;;;22.60;50.50;;;;;;4949571;28;93326;-67
2024/03/31 10:08:22;;;;;;;25.30;5.57;;;22.60;50.90;;;;;;4948355;28;92863;-65
2024/03/31 10:10:49;;;;;;;34.95;6.88;;;22.50;51.00;;;;;;4949697;28;92361;-66
2024/03/31 10:13:16;;;;;;;34.72;7.72;;;22.50;51.20;;;;;;4949435;28;92567;-64
2024/03/31 10:15:43;;;;;;;31.40;6.55;;;22.60;51.50;;;;;;4948289;28;93163;-64
2024/03/31 10:18:09;;;;;;;27.00;6.35;;;22.60;51.00;;;;;;4948752;28;91933;-65
2024/03/31 10:20:35;;;;;;;24.63;6.55;;;22.60;51.30;;;;;;4946069;28;93377;-67
2024/03/31 10:23:02;;;;;;;22.73;6.70;;;22.60;51.30;;;;;;4945602;28;92171;-65
2024/03/31 10:25:30;;;;;;;21.02;5.28;;;22.50;51.00;;;;;;4946916;28;94497;-66
2024/03/31 10:27:57;;;;;;;21.13;5.28;;;22.60;51.30;;;;;;4944051;28;92272;-65
2024/03/31 10:30:27;;;;;;;23.08;5.13;;;22.50;51.30;;;;;;4948908;28;92593;-64
2024/03/31 10:32:53;;;;;;;25.98;6.60;;;22.50;51.40;;;;;;4947243;28;92776;-65
2024/03/31 10:35:20;;;;;;;34.13;8.43;;;22.40;52.10;;;;;;4948861;28;93026;-65
2024/03/31 10:37:47;;;;;;;26.38;7.72;;;22.40;52.30;;;;;;4948437;28;93623;-67
2024/03/31 10:40:14;;;;;;;24.73;7.47;;;22.40;52.60;;;;;;4949395;28;92603;-64
2024/03/31 10:42:41;;;;;;;26.30;6.25;;;22.50;52.70;;;;;;4962574;28;91395;-64
2024/03/31 10:45:09;;;;;;;26.27;7.10;;;22.40;52.90;;;;;;4948535;28;93517;-64
2024/03/31 10:47:36;;;;;;;17.80;4.68;;;22.40;53.30;;;;;;4948566;28;93431;-65
2024/03/31 10:50:05;;;;;;;18.15;4.95;;;22.40;52.10;;;;;;4944422;28;93081;-64
2024/03/31 10:52:36;;;;;;;16.80;4.00;;;22.50;51.60;;;;;;4947197;28;92905;-67
2024/03/31 10:55:01;;;;;;;17.45;4.90;;;22.40;51.20;;;;;;4948144;28;93203;-67
2024/03/31 10:57:40;;;;;;;23.88;5.65;;;22.30;51.50;;;;;;4948352;28;92769;-66
2024/03/31 11:00:08;;;;;;;12.68;3.60;;;22.40;51.70;;;;;;4944838;28;91935;-65
2024/03/31 11:02:39;;;;;;;16.10;4.30;;;22.50;51.70;;;;;;4947092;28;92441;-65
2024/03/31 11:05:06;;;;;;;13.68;4.78;;;22.50;51.80;;;;;;4946102;28;94796;-66
2024/03/31 11:07:37;;;;;;;19.23;5.53;;;22.60;51.90;;;;;;4947308;28;93047;-65
2024/03/31 11:10:06;;;;;;;22.00;5.05;;;22.60;51.80;;;;;;4948267;28;92282;-68
2024/03/31 11:12:32;;;;;;;16.03;4.87;;;22.60;51.90;;;;;;4946361;28;92815;-67
2024/03/31 11:14:59;;;;;;;15.73;4.68;;;22.60;51.90;;;;;;4946085;28;94211;-67
2024/03/31 11:17:25;;;;;;;17.38;5.00;;;22.60;52.00;;;;;;4945073;28;94272;-65
2024/03/31 11:19:52;;;;;;;20.38;5.45;;;22.60;52.30;;;;;;4947432;28;93076;-64
2024/03/31 11:22:21;;;;;;;29.02;6.70;;;22.60;52.30;;;;;;4944062;28;92775;-68
2024/03/31 11:24:48;;;;;;;31.00;6.75;;;22.50;52.20;;;;;;4946501;28;93797;-65
2024/03/31 11:27:14;;;;;;;31.25;6.18;;;22.50;52.00;;;;;;4947062;28;93696;-64
2024/03/31 11:29:41;;;;;;;21.73;5.57;;;22.40;52.00;;;;;;4948433;28;93200;-67
2024/03/31 11:32:07;;;;;;;18.85;5.35;;;22.40;52.50;;;;;;4946516;28;92026;-67
2024/03/31 11:34:34;;;;;;;21.67;5.43;;;22.40;52.60;;;;;;4946587;28;94337;-66
2024/03/31 11:37:03;;;;;;;22.70;5.15;;;22.40;52.80;;;;;;4944989;28;92834;-67
2024/03/31 11:39:36;;;;;;;20.02;4.57;;;22.40;53.10;;;;;;4944437;28;93091;-65
2024/03/31 11:42:02;;;;;;;17.80;4.63;;;22.40;53.20;;;;;;4945756;28;92236;-65
2024/03/31 11:44:31;;;;;;;24.42;5.25;;;22.30;53.40;;;;;;4947009;28;93275;-64
2024/03/31 11:47:00;;;;;;;20.25;6.18;;;22.30;53.40;;;;;;4948354;28;93407;-66
2024/03/31 11:49:26;;;;;;;25.08;6.25;;;22.30;53.70;;;;;;4949432;28;92396;-63
2024/03/31 11:51:53;;;;;;;18.00;5.45;;;22.20;52.90;;;;;;4948820;28;92048;-67
2024/03/31 11:54:19;;;;;;;20.60;4.55;;;22.20;53.50;;;;;;4944945;28;94170;-66
2024/03/31 11:56:45;;;;;;;20.77;5.47;;;22.30;53.60;;;;;;4944434;28;93858;-65
2024/03/31 11:59:16;;;;;;;17.40;5.07;;;22.30;53.70;;;;;;4946602;28;91958;-64
2024/03/31 12:01:42;;;;;;;20.40;6.47;;;22.40;53.70;;;;;;4947130;28;92598;-66
2024/03/31 12:04:17;;;;;;;18.50;4.50;;;22.40;53.60;;;;;;4941701;28;95289;-65
2024/03/31 12:06:43;;;;;;;18.17;5.13;;;22.40;53.70;;;;;;4943581;28;93418;-64
2024/03/31 12:09:11;;;;;;;16.27;4.80;;;22.40;53.70;;;;;;4943558;28;92406;-65
2024/03/31 12:11:37;;;;;;;18.58;5.15;;;22.40;54.20;;;;;;4940191;28;92799;-64
2024/03/31 12:14:04;;;;;;;19.92;5.10;;;22.50;53.70;;;;;;4945555;28;93091;-63
2024/03/31 12:16:31;;;;;;;16.23;4.68;;;22.50;53.60;;;;;;4947731;28;92420;-67
2024/03/31 12:18:58;;;;;;;15.52;4.25;;;22.40;53.60;;;;;;4940749;28;92332;-64
2024/03/31 12:21:26;;;;;;;17.40;4.30;;;22.40;53.60;;;;;;4947355;28;91864;-63
2024/03/31 12:23:53;;;;;;;15.25;5.07;;;22.40;53.70;;;;;;4946134;28;96688;-65
2024/03/31 12:26:21;;;;;;;16.02;4.05;;;22.40;53.90;;;;;;4947658;28;92847;-65
2024/03/31 12:28:48;;;;;;;17.42;5.38;;;22.40;54.00;;;;;;4947791;28;93524;-63
2024/03/31 12:31:24;;;;;;;23.30;5.93;;;22.40;53.80;;;;;;4946840;28;92388;-63
2024/03/31 12:33:50;;;;;;;19.65;4.75;;;22.40;53.80;;;;;;4947019;28;93226;-64
2024/03/31 12:36:17;;;;;;;15.85;4.75;;;22.40;53.90;;;;;;4944846;28;94047;-64
2024/03/31 12:38:44;;;;;;;13.38;3.92;;;22.40;53.80;;;;;;4945142;28;92686;-64
2024/03/31 12:41:11;;;;;;;23.02;5.53;;;22.40;53.90;;;;;;4948159;28;92691;-66